Hlavní strana
METAR-TAF:

METAR-TAF

Letiště :

Mezinárodní letiště Káhira

Káhira, Egypt

zeměpisná šířka: 30-08N, zeměpisná délka: 031-24E, výška: 64 m

Aktuální stav počasí

Zpráva byla vytvořena před 33 minutami, v 19:30 UTC
Východoseverovýchodní vítr 6 kt
Teplota 18°C
Vlhkost vzduchu 37%
Tlak 1018 hPa
Viditelnost 10 km a více
Žádná oblačnost pod 1500 m, nevyskytují se cumulonimby.

METAR: HECA 191930Z 06006KT CAVOK 18/03 Q1018 NOSIG

Čas: 22:03 (20:03 UTC)

Předpověď počasí

Zpráva byla vytvořena před 3 hodinami a 3 minutami, v 17:00 UTC
Předpověď platná od 19 v 18 UTC do 20 v 24 UTC
Východoseverovýchodní vítr 8 kt
Viditelnost 10 km a více
Žádná oblačnost pod 1500 m, nevyskytují se cumulonimby.
Dočasný
od 19 v 22 UTC do 20 v 10 UTC
Viditelnost: 4000 m
zákal
Pravděpodobnost 40%
od 20 v 03 UTC do 20 v 08 UTC
vítr z různých směrů 2 kt
Viditelnost: 2000 m

TAF: HECA 191700Z 1918/2024 06008KT CAVOK TEMPO 1922/2010 4000 HZ NSC PROB40 2003/2008 VRB02KT 2000

Stav a předpovědi počasí z více než 4 000 letišť (zprávy METAR a TAF).

Červené a žluté tečky na mapě představují dostupné meteorologické stanice.

Když kurzor umístíte na tečku, zobrazí se název stanice.

Pak kliknutím zobrazíte stav a předpověď počasí.

Chcete-li změnit mapu, kliknutím na zelené tlačítko se znaménkem +mapu přiblížíte, kliknutím na zelené tlačítko se znaménkem – mapu oddálíte a kliknutím na zelené šipky přejdete na sousední mapy.


METAR-TAF: